New York, NY

1:00 AM EDT on August 21, 2014 (GMT -0400)
Central Park | Change Station
CLOSE
Current Station
Airport
Location: Central Park,
Elevation: 154 ft
Nearby Weather Stations

Elev 154 ft 40.78 °N, 73.97 °W | Updated 9 minutes ago

Clear
Clear
73 °F
Feels Like 73 °F
N
4
Wind Variable Wind from WSW

Today
High -- | Low -- °F
--% Chance of Precip.
Yesterday
High -- | Low -- °F
Precip. -- in
6:12 AM 7:45 PM
Waning Crescent, 17% visible
Pressure 30.04 in
Visibility 10.0 miles
Clouds Clear
Dew Point 61 °F
Humidity 66%
Rainfall 0.00 in
Snow Depth Not available.
UV 0 out of 12
Pollen 9.70 out of 12
PM2.5 Good
Flu Activity Not available.
METAR KNYC 210451Z AUTO 24003KT 10SM CLR 23/16 A3006 RMK AO2 SLP170 T02280161 402890211

More Conditions Fewer Conditions

Pressure 30.04 in
Visibility 10.0 miles
Clouds Clear
Dew Point 61 °F
Humidity 66%
Rainfall 0.00 in
Snow Depth Not available.
UV 0 out of 12
Pollen 9.70 out of 12
PM2.5 Good
Flu Activity Not available.
METAR KNYC 210451Z AUTO 24003KT 10SM CLR 23/16 A3006 RMK AO2 SLP170 T02280161 402890211

More Conditions Fewer Conditions

10-Day Weather Forecast

Almanac

Astronomy

Aug. 21, 2014 Rise Set
Actual Time 6:12 AM EDT 7:45 PM EDT
Civil Twilight 5:43 AM EDT 8:14 PM EDT
Nautical Twilight 5:08 AM EDT 8:48 PM EDT
Astronomical Twilight 4:31 AM EDT 9:25 PM EDT
Moon 2:39 AM EDT 5:12 PM EDT
Length of Visible Light 14h 30m
Length of Day
13h 33m
Tomorrow will be 2m 29s shorter.
Waning Crescent, 17% of the Moon is Illuminated
Today
Waning Crescent
Aug 25
New
Sep 2
First Quarter
Sep 8
Full
Sep 15
Last Quarter

Today's Extremes

State Highs State Lows

Community

WunderPhotos

Upload Photos

1,745,857 photos uploaded!

Nearby

Air Quality

  Air Quality AQ Index Pollutant
Yesterday Good
PM2.5
Current Good
PM2.5
Wednesday Moderate
OZONE
Wednesday Good
PM2.5
Thursday Good
OZONE
Thursday Good
PM2.5

Snow Depth

Station Depth Elevation
No new snow has been reported.

Earthquake Activity

City Distance Mag. Time & Date
Deep River Center, Connecticut 88 miles 2.7 3:09 AM EDT
2014-08-14
Minimum magnitude displayed is 2.5.

Coastal Water Temperatures

Place Temperature
Sandy Hook, NJ 75.9 °F
The Battery, NY 73.0 °F
Bergen Point West Reach, NJ 73.9 °F
Kings Point, NY 73.9 °F

Nearby Weather Stations